sensor_id;sensor_type;location;lat;lon;timestamp;P1;durP1;ratioP1;P2;durP2;ratioP2
54919;SDS011;63804;53.120;8.764;2023-09-18T00:01:41;12.48;;;8.00;;
54919;SDS011;63804;53.120;8.764;2023-09-18T00:04:09;10.20;;;8.07;;
54919;SDS011;63804;53.120;8.764;2023-09-18T00:06:36;10.95;;;8.40;;
54919;SDS011;63804;53.120;8.764;2023-09-18T00:09:04;10.23;;;7.72;;
54919;SDS011;63804;53.120;8.764;2023-09-18T00:11:34;10.48;;;8.48;;
54919;SDS011;63804;53.120;8.764;2023-09-18T00:14:02;10.20;;;7.75;;
54919;SDS011;63804;53.120;8.764;2023-09-18T00:16:30;11.00;;;7.97;;
54919;SDS011;63804;53.120;8.764;2023-09-18T00:19:18;10.50;;;7.82;;
54919;SDS011;63804;53.120;8.764;2023-09-18T00:21:45;11.57;;;8.00;;
54919;SDS011;63804;53.120;8.764;2023-09-18T00:24:13;12.00;;;8.23;;
54919;SDS011;63804;53.120;8.764;2023-09-18T00:26:40;10.77;;;7.93;;
54919;SDS011;63804;53.120;8.764;2023-09-18T00:29:08;12.57;;;8.65;;
54919;SDS011;63804;53.120;8.764;2023-09-18T00:31:35;11.77;;;7.28;;
54919;SDS011;63804;53.120;8.764;2023-09-18T00:34:03;9.77;;;7.22;;
54919;SDS011;63804;53.120;8.764;2023-09-18T00:36:30;11.23;;;7.63;;
54919;SDS011;63804;53.120;8.764;2023-09-18T00:38:58;11.98;;;7.40;;
54919;SDS011;63804;53.120;8.764;2023-09-18T00:41:25;10.55;;;7.57;;
54919;SDS011;63804;53.120;8.764;2023-09-18T00:43:53;11.00;;;7.32;;
54919;SDS011;63804;53.120;8.764;2023-09-18T00:46:21;10.45;;;7.93;;
54919;SDS011;63804;53.120;8.764;2023-09-18T00:48:49;11.05;;;8.20;;
54919;SDS011;63804;53.120;8.764;2023-09-18T00:51:17;10.07;;;7.45;;
54919;SDS011;63804;53.120;8.764;2023-09-18T00:53:45;10.75;;;7.43;;
54919;SDS011;63804;53.120;8.764;2023-09-18T00:56:15;11.40;;;7.15;;
54919;SDS011;63804;53.120;8.764;2023-09-18T00:58:44;10.95;;;7.10;;
54919;SDS011;63804;53.120;8.764;2023-09-18T01:01:12;11.88;;;7.95;;
54919;SDS011;63804;53.120;8.764;2023-09-18T01:03:50;9.20;;;7.20;;
54919;SDS011;63804;53.120;8.764;2023-09-18T01:06:18;10.82;;;7.00;;
54919;SDS011;63804;53.120;8.764;2023-09-18T01:08:48;11.52;;;7.90;;
54919;SDS011;63804;53.120;8.764;2023-09-18T01:16:56;12.63;;;7.95;;
54919;SDS011;63804;53.120;8.764;2023-09-18T01:19:36;10.82;;;7.22;;
54919;SDS011;63804;53.120;8.764;2023-09-18T01:22:15;11.10;;;7.90;;
54919;SDS011;63804;53.120;8.764;2023-09-18T01:24:44;9.73;;;7.07;;
54919;SDS011;63804;53.120;8.764;2023-09-18T01:27:17;9.45;;;6.82;;
54919;SDS011;63804;53.120;8.764;2023-09-18T01:29:45;13.70;;;7.65;;
54919;SDS011;63804;53.120;8.764;2023-09-18T01:32:13;11.38;;;7.55;;
54919;SDS011;63804;53.120;8.764;2023-09-18T01:34:46;12.55;;;7.68;;
54919;SDS011;63804;53.120;8.764;2023-09-18T01:37:15;9.55;;;7.10;;
54919;SDS011;63804;53.120;8.764;2023-09-18T01:39:45;10.65;;;7.50;;
54919;SDS011;63804;53.120;8.764;2023-09-18T01:42:14;9.75;;;6.90;;
54919;SDS011;63804;53.120;8.764;2023-09-18T01:44:43;9.98;;;6.78;;
54919;SDS011;63804;53.120;8.764;2023-09-18T01:47:13;11.70;;;7.07;;
54919;SDS011;63804;53.120;8.764;2023-09-18T01:49:43;11.32;;;6.95;;
54919;SDS011;63804;53.120;8.764;2023-09-18T01:52:11;10.00;;;6.57;;
54919;SDS011;63804;53.120;8.764;2023-09-18T01:54:39;10.43;;;6.70;;
54919;SDS011;63804;53.120;8.764;2023-09-18T01:57:06;9.02;;;6.55;;
54919;SDS011;63804;53.120;8.764;2023-09-18T01:59:37;10.35;;;6.90;;
54919;SDS011;63804;53.120;8.764;2023-09-18T02:02:05;10.35;;;6.90;;
54919;SDS011;63804;53.120;8.764;2023-09-18T02:04:49;10.18;;;6.95;;
54919;SDS011;63804;53.120;8.764;2023-09-18T02:10:01;10.18;;;6.80;;
54919;SDS011;63804;53.120;8.764;2023-09-18T02:12:28;9.45;;;6.90;;
54919;SDS011;63804;53.120;8.764;2023-09-18T02:14:56;9.60;;;6.57;;
54919;SDS011;63804;53.120;8.764;2023-09-18T02:17:25;10.20;;;6.82;;
54919;SDS011;63804;53.120;8.764;2023-09-18T02:19:53;9.43;;;6.35;;
54919;SDS011;63804;53.120;8.764;2023-09-18T02:22:20;10.30;;;6.45;;
54919;SDS011;63804;53.120;8.764;2023-09-18T02:24:48;9.40;;;6.20;;
54919;SDS011;63804;53.120;8.764;2023-09-18T02:27:15;9.63;;;6.32;;
54919;SDS011;63804;53.120;8.764;2023-09-18T02:29:45;9.13;;;6.47;;
54919;SDS011;63804;53.120;8.764;2023-09-18T02:32:13;10.40;;;6.57;;
54919;SDS011;63804;53.120;8.764;2023-09-18T02:34:40;10.50;;;6.65;;
54919;SDS011;63804;53.120;8.764;2023-09-18T02:37:08;9.65;;;6.10;;
54919;SDS011;63804;53.120;8.764;2023-09-18T02:39:35;11.43;;;6.20;;
54919;SDS011;63804;53.120;8.764;2023-09-18T02:42:03;9.13;;;6.13;;
54919;SDS011;63804;53.120;8.764;2023-09-18T02:44:31;9.85;;;5.80;;
54919;SDS011;63804;53.120;8.764;2023-09-18T02:46:58;9.65;;;6.10;;
54919;SDS011;63804;53.120;8.764;2023-09-18T02:49:26;8.65;;;5.97;;
54919;SDS011;63804;53.120;8.764;2023-09-18T02:51:53;10.13;;;6.72;;
54919;SDS011;63804;53.120;8.764;2023-09-18T02:54:21;9.18;;;5.97;;
54919;SDS011;63804;53.120;8.764;2023-09-18T02:56:48;9.88;;;6.05;;
54919;SDS011;63804;53.120;8.764;2023-09-18T02:59:15;10.27;;;6.15;;
54919;SDS011;63804;53.120;8.764;2023-09-18T03:01:43;10.82;;;7.03;;
54919;SDS011;63804;53.120;8.764;2023-09-18T03:04:11;10.45;;;6.60;;
54919;SDS011;63804;53.120;8.764;2023-09-18T03:06:38;10.32;;;6.30;;
54919;SDS011;63804;53.120;8.764;2023-09-18T03:09:07;9.57;;;6.30;;
54919;SDS011;63804;53.120;8.764;2023-09-18T03:11:34;10.45;;;6.85;;
54919;SDS011;63804;53.120;8.764;2023-09-18T03:14:01;9.93;;;6.30;;
54919;SDS011;63804;53.120;8.764;2023-09-18T03:16:29;11.20;;;6.40;;
54919;SDS011;63804;53.120;8.764;2023-09-18T03:19:00;10.07;;;6.63;;
54919;SDS011;63804;53.120;8.764;2023-09-18T03:21:27;10.07;;;6.28;;
54919;SDS011;63804;53.120;8.764;2023-09-18T03:23:55;10.82;;;5.95;;
54919;SDS011;63804;53.120;8.764;2023-09-18T03:26:22;9.63;;;5.93;;
54919;SDS011;63804;53.120;8.764;2023-09-18T03:28:50;9.85;;;6.32;;
54919;SDS011;63804;53.120;8.764;2023-09-18T03:31:18;9.00;;;6.20;;
54919;SDS011;63804;53.120;8.764;2023-09-18T03:33:45;10.07;;;6.22;;
54919;SDS011;63804;53.120;8.764;2023-09-18T03:36:13;8.43;;;5.85;;
54919;SDS011;63804;53.120;8.764;2023-09-18T03:38:41;10.73;;;6.55;;
54919;SDS011;63804;53.120;8.764;2023-09-18T03:41:09;9.45;;;6.22;;
54919;SDS011;63804;53.120;8.764;2023-09-18T03:43:36;8.73;;;6.07;;
54919;SDS011;63804;53.120;8.764;2023-09-18T03:46:07;10.50;;;6.55;;
54919;SDS011;63804;53.120;8.764;2023-09-18T03:48:34;10.45;;;6.65;;
54919;SDS011;63804;53.120;8.764;2023-09-18T03:51:04;10.77;;;6.18;;
54919;SDS011;63804;53.120;8.764;2023-09-18T03:53:32;10.25;;;5.93;;
54919;SDS011;63804;53.120;8.764;2023-09-18T03:56:01;10.20;;;6.03;;
54919;SDS011;63804;53.120;8.764;2023-09-18T03:58:29;10.65;;;6.20;;
54919;SDS011;63804;53.120;8.764;2023-09-18T04:00:56;9.60;;;5.78;;
54919;SDS011;63804;53.120;8.764;2023-09-18T04:03:24;10.93;;;6.10;;
54919;SDS011;63804;53.120;8.764;2023-09-18T04:05:52;10.55;;;6.28;;
54919;SDS011;63804;53.120;8.764;2023-09-18T04:08:19;10.57;;;6.15;;
54919;SDS011;63804;53.120;8.764;2023-09-18T04:10:47;11.68;;;6.03;;
54919;SDS011;63804;53.120;8.764;2023-09-18T04:13:15;10.50;;;6.40;;
54919;SDS011;63804;53.120;8.764;2023-09-18T04:15:43;9.57;;;6.20;;
54919;SDS011;63804;53.120;8.764;2023-09-18T04:18:11;9.20;;;5.97;;
54919;SDS011;63804;53.120;8.764;2023-09-18T04:20:38;10.48;;;6.43;;
54919;SDS011;63804;53.120;8.764;2023-09-18T04:25:49;10.23;;;6.53;;
54919;SDS011;63804;53.120;8.764;2023-09-18T04:28:18;10.30;;;6.00;;
54919;SDS011;63804;53.120;8.764;2023-09-18T04:30:47;9.90;;;6.05;;
54919;SDS011;63804;53.120;8.764;2023-09-18T04:33:15;9.93;;;5.55;;
54919;SDS011;63804;53.120;8.764;2023-09-18T04:35:43;11.52;;;6.18;;
54919;SDS011;63804;53.120;8.764;2023-09-18T04:38:11;9.57;;;5.38;;
54919;SDS011;63804;53.120;8.764;2023-09-18T04:40:39;8.73;;;5.30;;
54919;SDS011;63804;53.120;8.764;2023-09-18T04:43:08;11.60;;;5.32;;
54919;SDS011;63804;53.120;8.764;2023-09-18T04:45:35;10.30;;;5.72;;
54919;SDS011;63804;53.120;8.764;2023-09-18T04:48:03;10.15;;;5.97;;
54919;SDS011;63804;53.120;8.764;2023-09-18T04:50:33;11.18;;;5.47;;
54919;SDS011;63804;53.120;8.764;2023-09-18T04:53:01;9.80;;;5.32;;
54919;SDS011;63804;53.120;8.764;2023-09-18T04:55:29;10.50;;;5.60;;
54919;SDS011;63804;53.120;8.764;2023-09-18T04:57:56;12.38;;;5.32;;
54919;SDS011;63804;53.120;8.764;2023-09-18T05:00:26;7.90;;;5.45;;
54919;SDS011;63804;53.120;8.764;2023-09-18T05:02:54;10.00;;;5.40;;
54919;SDS011;63804;53.120;8.764;2023-09-18T05:05:22;9.38;;;5.22;;
54919;SDS011;63804;53.120;8.764;2023-09-18T05:07:49;8.55;;;5.57;;
54919;SDS011;63804;53.120;8.764;2023-09-18T05:10:17;8.70;;;5.15;;
54919;SDS011;63804;53.120;8.764;2023-09-18T05:12:45;9.90;;;4.95;;
54919;SDS011;63804;53.120;8.764;2023-09-18T05:15:12;10.45;;;5.20;;
54919;SDS011;63804;53.120;8.764;2023-09-18T05:17:41;8.73;;;5.18;;
54919;SDS011;63804;53.120;8.764;2023-09-18T05:20:10;8.65;;;4.80;;
54919;SDS011;63804;53.120;8.764;2023-09-18T05:22:41;9.90;;;5.25;;
54919;SDS011;63804;53.120;8.764;2023-09-18T05:25:09;8.88;;;4.90;;
54919;SDS011;63804;53.120;8.764;2023-09-18T05:27:42;9.25;;;5.32;;
54919;SDS011;63804;53.120;8.764;2023-09-18T05:30:13;11.98;;;5.20;;
54919;SDS011;63804;53.120;8.764;2023-09-18T05:32:43;9.70;;;5.18;;
54919;SDS011;63804;53.120;8.764;2023-09-18T05:35:11;9.07;;;5.10;;
54919;SDS011;63804;53.120;8.764;2023-09-18T05:37:41;10.40;;;5.18;;
54919;SDS011;63804;53.120;8.764;2023-09-18T05:40:10;12.88;;;5.28;;
54919;SDS011;63804;53.120;8.764;2023-09-18T05:42:39;8.43;;;4.82;;
54919;SDS011;63804;53.120;8.764;2023-09-18T05:45:13;9.30;;;5.05;;
54919;SDS011;63804;53.120;8.764;2023-09-18T05:47:44;8.43;;;4.75;;
54919;SDS011;63804;53.120;8.764;2023-09-18T05:50:12;10.80;;;5.10;;
54919;SDS011;63804;53.120;8.764;2023-09-18T05:52:44;10.13;;;5.00;;
54919;SDS011;63804;53.120;8.764;2023-09-18T05:55:14;10.52;;;5.07;;
54919;SDS011;63804;53.120;8.764;2023-09-18T05:57:42;9.52;;;4.68;;
54919;SDS011;63804;53.120;8.764;2023-09-18T06:00:10;11.93;;;5.10;;
54919;SDS011;63804;53.120;8.764;2023-09-18T06:02:40;7.90;;;5.20;;
54919;SDS011;63804;53.120;8.764;2023-09-18T06:05:08;9.93;;;4.93;;
54919;SDS011;63804;53.120;8.764;2023-09-18T06:07:39;11.25;;;5.50;;
54919;SDS011;63804;53.120;8.764;2023-09-18T06:10:06;9.65;;;5.10;;
54919;SDS011;63804;53.120;8.764;2023-09-18T06:12:34;7.78;;;4.93;;
54919;SDS011;63804;53.120;8.764;2023-09-18T06:15:02;7.80;;;5.00;;
54919;SDS011;63804;53.120;8.764;2023-09-18T06:17:31;9.38;;;4.80;;
54919;SDS011;63804;53.120;8.764;2023-09-18T06:19:58;9.13;;;5.03;;
54919;SDS011;63804;53.120;8.764;2023-09-18T06:22:26;9.27;;;5.32;;
54919;SDS011;63804;53.120;8.764;2023-09-18T06:24:53;15.38;;;5.53;;
54919;SDS011;63804;53.120;8.764;2023-09-18T06:27:21;10.77;;;6.47;;
54919;SDS011;63804;53.120;8.764;2023-09-18T06:29:49;12.10;;;6.00;;
54919;SDS011;63804;53.120;8.764;2023-09-18T06:33:31;9.10;;;5.47;;
54919;SDS011;63804;53.120;8.764;2023-09-18T06:35:59;9.60;;;5.47;;
54919;SDS011;63804;53.120;8.764;2023-09-18T06:38:26;11.98;;;5.28;;
54919;SDS011;63804;53.120;8.764;2023-09-18T06:40:54;8.70;;;5.22;;
54919;SDS011;63804;53.120;8.764;2023-09-18T06:43:22;10.38;;;5.53;;
54919;SDS011;63804;53.120;8.764;2023-09-18T06:45:50;9.20;;;5.03;;
54919;SDS011;63804;53.120;8.764;2023-09-18T06:48:17;10.45;;;5.20;;
54919;SDS011;63804;53.120;8.764;2023-09-18T06:50:45;8.73;;;4.97;;
54919;SDS011;63804;53.120;8.764;2023-09-18T06:53:12;11.73;;;5.35;;
54919;SDS011;63804;53.120;8.764;2023-09-18T06:55:40;9.98;;;4.80;;
54919;SDS011;63804;53.120;8.764;2023-09-18T06:58:07;8.95;;;5.05;;
54919;SDS011;63804;53.120;8.764;2023-09-18T07:00:35;8.88;;;4.72;;
54919;SDS011;63804;53.120;8.764;2023-09-18T07:03:02;7.35;;;4.88;;
54919;SDS011;63804;53.120;8.764;2023-09-18T07:05:30;9.52;;;5.40;;
54919;SDS011;63804;53.120;8.764;2023-09-18T07:07:58;9.07;;;5.28;;
54919;SDS011;63804;53.120;8.764;2023-09-18T07:10:25;10.25;;;4.88;;
54919;SDS011;63804;53.120;8.764;2023-09-18T07:12:53;9.35;;;5.45;;
54919;SDS011;63804;53.120;8.764;2023-09-18T07:15:21;7.93;;;5.32;;
54919;SDS011;63804;53.120;8.764;2023-09-18T07:17:48;10.60;;;5.50;;
54919;SDS011;63804;53.120;8.764;2023-09-18T07:20:16;10.15;;;5.22;;
54919;SDS011;63804;53.120;8.764;2023-09-18T07:22:46;8.52;;;5.68;;
54919;SDS011;63804;53.120;8.764;2023-09-18T07:25:15;11.63;;;5.93;;
54919;SDS011;63804;53.120;8.764;2023-09-18T07:27:43;8.73;;;4.93;;
54919;SDS011;63804;53.120;8.764;2023-09-18T07:30:11;8.88;;;5.25;;
54919;SDS011;63804;53.120;8.764;2023-09-18T07:32:40;10.63;;;5.25;;
54919;SDS011;63804;53.120;8.764;2023-09-18T07:35:08;9.55;;;5.95;;
54919;SDS011;63804;53.120;8.764;2023-09-18T07:37:36;10.93;;;5.80;;
54919;SDS011;63804;53.120;8.764;2023-09-18T07:40:04;9.25;;;5.50;;
54919;SDS011;63804;53.120;8.764;2023-09-18T07:42:33;11.38;;;5.18;;
54919;SDS011;63804;53.120;8.764;2023-09-18T07:45:00;11.63;;;5.25;;
54919;SDS011;63804;53.120;8.764;2023-09-18T07:47:28;9.65;;;5.35;;
54919;SDS011;63804;53.120;8.764;2023-09-18T07:49:56;9.88;;;5.10;;
54919;SDS011;63804;53.120;8.764;2023-09-18T07:52:24;8.38;;;5.05;;
54919;SDS011;63804;53.120;8.764;2023-09-18T07:54:51;8.20;;;5.13;;
54919;SDS011;63804;53.120;8.764;2023-09-18T07:57:18;8.07;;;5.38;;
54919;SDS011;63804;53.120;8.764;2023-09-18T07:59:47;10.15;;;5.43;;
54919;SDS011;63804;53.120;8.764;2023-09-18T08:02:15;11.57;;;5.53;;
54919;SDS011;63804;53.120;8.764;2023-09-18T08:04:43;8.80;;;5.20;;
54919;SDS011;63804;53.120;8.764;2023-09-18T08:07:11;8.30;;;5.45;;
54919;SDS011;63804;53.120;8.764;2023-09-18T08:09:39;9.93;;;5.50;;
54919;SDS011;63804;53.120;8.764;2023-09-18T08:12:07;10.48;;;5.47;;
54919;SDS011;63804;53.120;8.764;2023-09-18T08:14:35;8.80;;;5.00;;
54919;SDS011;63804;53.120;8.764;2023-09-18T08:17:04;9.98;;;5.38;;
54919;SDS011;63804;53.120;8.764;2023-09-18T08:19:34;8.30;;;5.35;;
54919;SDS011;63804;53.120;8.764;2023-09-18T08:22:04;9.68;;;5.28;;
54919;SDS011;63804;53.120;8.764;2023-09-18T08:24:31;8.70;;;5.38;;
54919;SDS011;63804;53.120;8.764;2023-09-18T08:26:59;12.13;;;5.47;;
54919;SDS011;63804;53.120;8.764;2023-09-18T08:29:26;8.32;;;5.18;;
54919;SDS011;63804;53.120;8.764;2023-09-18T08:31:54;11.00;;;5.18;;
54919;SDS011;63804;53.120;8.764;2023-09-18T08:34:21;11.27;;;5.88;;
54919;SDS011;63804;53.120;8.764;2023-09-18T08:36:50;8.80;;;5.03;;
54919;SDS011;63804;53.120;8.764;2023-09-18T08:39:18;9.98;;;5.18;;
54919;SDS011;63804;53.120;8.764;2023-09-18T08:41:45;10.15;;;5.20;;
54919;SDS011;63804;53.120;8.764;2023-09-18T08:44:18;9.18;;;5.72;;
54919;SDS011;63804;53.120;8.764;2023-09-18T08:46:46;9.23;;;5.13;;
54919;SDS011;63804;53.120;8.764;2023-09-18T08:49:13;11.38;;;5.25;;
54919;SDS011;63804;53.120;8.764;2023-09-18T08:51:42;7.30;;;4.80;;
54919;SDS011;63804;53.120;8.764;2023-09-18T08:54:09;7.88;;;4.72;;
54919;SDS011;63804;53.120;8.764;2023-09-18T08:56:37;9.48;;;5.13;;
54919;SDS011;63804;53.120;8.764;2023-09-18T08:59:05;10.25;;;5.30;;
54919;SDS011;63804;53.120;8.764;2023-09-18T09:01:33;7.78;;;4.55;;
54919;SDS011;63804;53.120;8.764;2023-09-18T09:04:00;10.40;;;5.05;;
54919;SDS011;63804;53.120;8.764;2023-09-18T09:06:28;11.07;;;4.88;;
54919;SDS011;63804;53.120;8.764;2023-09-18T09:08:55;10.45;;;4.82;;
54919;SDS011;63804;53.120;8.764;2023-09-18T09:11:23;9.00;;;4.18;;
54919;SDS011;63804;53.120;8.764;2023-09-18T09:14:09;8.45;;;4.38;;
54919;SDS011;63804;53.120;8.764;2023-09-18T09:16:49;9.38;;;4.13;;
54919;SDS011;63804;53.120;8.764;2023-09-18T09:19:18;9.95;;;4.30;;
54919;SDS011;63804;53.120;8.764;2023-09-18T09:21:46;9.60;;;3.88;;
54919;SDS011;63804;53.120;8.764;2023-09-18T09:24:15;9.07;;;4.00;;
54919;SDS011;63804;53.120;8.764;2023-09-18T09:26:43;11.10;;;4.20;;
54919;SDS011;63804;53.120;8.764;2023-09-18T09:29:14;9.30;;;3.92;;
54919;SDS011;63804;53.120;8.764;2023-09-18T09:31:45;12.52;;;3.92;;
54919;SDS011;63804;53.120;8.764;2023-09-18T09:34:23;8.85;;;3.70;;
54919;SDS011;63804;53.120;8.764;2023-09-18T09:36:55;10.23;;;3.63;;
54919;SDS011;63804;53.120;8.764;2023-09-18T09:39:24;11.80;;;4.10;;
54919;SDS011;63804;53.120;8.764;2023-09-18T09:41:53;10.63;;;4.07;;
54919;SDS011;63804;53.120;8.764;2023-09-18T09:44:21;9.48;;;3.85;;
54919;SDS011;63804;53.120;8.764;2023-09-18T09:46:48;11.30;;;3.88;;
54919;SDS011;63804;53.120;8.764;2023-09-18T09:49:17;11.90;;;3.63;;
54919;SDS011;63804;53.120;8.764;2023-09-18T09:51:46;9.60;;;3.85;;
54919;SDS011;63804;53.120;8.764;2023-09-18T09:54:14;11.73;;;3.88;;
54919;SDS011;63804;53.120;8.764;2023-09-18T09:57:04;9.05;;;3.63;;
54919;SDS011;63804;53.120;8.764;2023-09-18T09:59:32;9.93;;;3.65;;
54919;SDS011;63804;53.120;8.764;2023-09-18T10:02:02;10.18;;;3.63;;
54919;SDS011;63804;53.120;8.764;2023-09-18T10:04:31;11.02;;;3.92;;
54919;SDS011;63804;53.120;8.764;2023-09-18T10:07:07;9.43;;;3.83;;
54919;SDS011;63804;53.120;8.764;2023-09-18T10:09:37;12.80;;;3.92;;
54919;SDS011;63804;53.120;8.764;2023-09-18T10:12:11;9.82;;;3.83;;
54919;SDS011;63804;53.120;8.764;2023-09-18T10:14:42;13.65;;;4.32;;
54919;SDS011;63804;53.120;8.764;2023-09-18T10:17:28;11.85;;;3.45;;
54919;SDS011;63804;53.120;8.764;2023-09-18T10:20:01;8.05;;;3.50;;
54919;SDS011;63804;53.120;8.764;2023-09-18T10:22:38;9.15;;;3.80;;
54919;SDS011;63804;53.120;8.764;2023-09-18T10:25:14;10.52;;;3.42;;
54919;SDS011;63804;53.120;8.764;2023-09-18T10:27:47;11.73;;;3.40;;
54919;SDS011;63804;53.120;8.764;2023-09-18T10:30:36;9.63;;;3.33;;
54919;SDS011;63804;53.120;8.764;2023-09-18T10:33:04;11.27;;;3.40;;
54919;SDS011;63804;53.120;8.764;2023-09-18T10:35:34;11.00;;;3.88;;
54919;SDS011;63804;53.120;8.764;2023-09-18T10:38:03;12.35;;;3.95;;
54919;SDS011;63804;53.120;8.764;2023-09-18T10:40:33;11.82;;;3.40;;
54919;SDS011;63804;53.120;8.764;2023-09-18T10:43:03;11.13;;;3.03;;
54919;SDS011;63804;53.120;8.764;2023-09-18T10:45:36;9.60;;;3.63;;
54919;SDS011;63804;53.120;8.764;2023-09-18T10:48:05;7.57;;;3.40;;
54919;SDS011;63804;53.120;8.764;2023-09-18T10:50:36;11.75;;;3.55;;
54919;SDS011;63804;53.120;8.764;2023-09-18T10:53:04;9.25;;;3.40;;
54919;SDS011;63804;53.120;8.764;2023-09-18T10:55:31;9.90;;;3.15;;
54919;SDS011;63804;53.120;8.764;2023-09-18T10:58:00;9.45;;;3.00;;
54919;SDS011;63804;53.120;8.764;2023-09-18T11:00:29;7.57;;;2.80;;
54919;SDS011;63804;53.120;8.764;2023-09-18T11:03:11;10.15;;;3.55;;
54919;SDS011;63804;53.120;8.764;2023-09-18T11:05:41;11.23;;;3.25;;
54919;SDS011;63804;53.120;8.764;2023-09-18T11:08:24;7.47;;;3.20;;
54919;SDS011;63804;53.120;8.764;2023-09-18T11:13:30;8.55;;;3.45;;
54919;SDS011;63804;53.120;8.764;2023-09-18T11:16:12;9.13;;;3.10;;
54919;SDS011;63804;53.120;8.764;2023-09-18T11:19:20;9.07;;;2.90;;
54919;SDS011;63804;53.120;8.764;2023-09-18T11:21:44;10.10;;;2.80;;
54919;SDS011;63804;53.120;8.764;2023-09-18T11:24:17;9.05;;;3.13;;
54919;SDS011;63804;53.120;8.764;2023-09-18T11:26:47;8.05;;;3.35;;
54919;SDS011;63804;53.120;8.764;2023-09-18T11:29:16;9.15;;;2.80;;
54919;SDS011;63804;53.120;8.764;2023-09-18T11:31:50;8.60;;;3.10;;
54919;SDS011;63804;53.120;8.764;2023-09-18T11:36:51;8.25;;;3.20;;
54919;SDS011;63804;53.120;8.764;2023-09-18T11:42:23;7.05;;;2.88;;
54919;SDS011;63804;53.120;8.764;2023-09-18T11:44:53;9.25;;;2.97;;
54919;SDS011;63804;53.120;8.764;2023-09-18T11:47:25;8.55;;;2.83;;
54919;SDS011;63804;53.120;8.764;2023-09-18T11:49:57;9.57;;;3.00;;
54919;SDS011;63804;53.120;8.764;2023-09-18T11:52:27;8.63;;;2.85;;
54919;SDS011;63804;53.120;8.764;2023-09-18T11:54:59;8.52;;;2.92;;
54919;SDS011;63804;53.120;8.764;2023-09-18T11:57:28;7.45;;;2.97;;
54919;SDS011;63804;53.120;8.764;2023-09-18T12:00:02;8.18;;;2.80;;
54919;SDS011;63804;53.120;8.764;2023-09-18T12:02:39;7.82;;;3.17;;
54919;SDS011;63804;53.120;8.764;2023-09-18T12:05:10;7.72;;;2.95;;
54919;SDS011;63804;53.120;8.764;2023-09-18T12:07:46;6.72;;;2.70;;
54919;SDS011;63804;53.120;8.764;2023-09-18T12:10:15;7.50;;;2.65;;
54919;SDS011;63804;53.120;8.764;2023-09-18T12:12:48;7.60;;;2.60;;
54919;SDS011;63804;53.120;8.764;2023-09-18T12:15:18;7.25;;;2.80;;
54919;SDS011;63804;53.120;8.764;2023-09-18T12:17:54;6.22;;;2.60;;
54919;SDS011;63804;53.120;8.764;2023-09-18T12:20:22;5.50;;;2.50;;
54919;SDS011;63804;53.120;8.764;2023-09-18T12:22:50;8.43;;;2.60;;
54919;SDS011;63804;53.120;8.764;2023-09-18T12:25:18;5.30;;;2.20;;
54919;SDS011;63804;53.120;8.764;2023-09-18T12:27:46;9.10;;;2.63;;
54919;SDS011;63804;53.120;8.764;2023-09-18T12:30:18;4.00;;;2.13;;
54919;SDS011;63804;53.120;8.764;2023-09-18T12:32:49;7.10;;;2.60;;
54919;SDS011;63804;53.120;8.764;2023-09-18T12:35:18;4.72;;;2.20;;
54919;SDS011;63804;53.120;8.764;2023-09-18T12:37:46;8.02;;;2.45;;
54919;SDS011;63804;53.120;8.764;2023-09-18T12:40:20;7.80;;;2.60;;
54919;SDS011;63804;53.120;8.764;2023-09-18T12:42:54;7.22;;;2.67;;
54919;SDS011;63804;53.120;8.764;2023-09-18T12:45:23;6.75;;;2.85;;
54919;SDS011;63804;53.120;8.764;2023-09-18T12:47:53;7.53;;;2.40;;
54919;SDS011;63804;53.120;8.764;2023-09-18T12:50:23;8.25;;;2.45;;
54919;SDS011;63804;53.120;8.764;2023-09-18T12:52:51;6.05;;;2.58;;
54919;SDS011;63804;53.120;8.764;2023-09-18T12:55:25;5.45;;;2.33;;
54919;SDS011;63804;53.120;8.764;2023-09-18T12:57:54;5.50;;;2.00;;
54919;SDS011;63804;53.120;8.764;2023-09-18T13:00:23;5.18;;;2.20;;
54919;SDS011;63804;53.120;8.764;2023-09-18T13:02:54;8.10;;;2.20;;
54919;SDS011;63804;53.120;8.764;2023-09-18T13:05:24;6.03;;;2.42;;
54919;SDS011;63804;53.120;8.764;2023-09-18T13:07:53;6.53;;;2.50;;
54919;SDS011;63804;53.120;8.764;2023-09-18T13:10:22;6.13;;;2.30;;
54919;SDS011;63804;53.120;8.764;2023-09-18T13:12:54;4.47;;;2.15;;
54919;SDS011;63804;53.120;8.764;2023-09-18T13:15:26;3.80;;;2.10;;
54919;SDS011;63804;53.120;8.764;2023-09-18T13:17:58;5.68;;;2.20;;
54919;SDS011;63804;53.120;8.764;2023-09-18T13:20:28;7.30;;;2.35;;
54919;SDS011;63804;53.120;8.764;2023-09-18T13:22:57;7.05;;;2.47;;
54919;SDS011;63804;53.120;8.764;2023-09-18T13:25:34;3.30;;;2.00;;
54919;SDS011;63804;53.120;8.764;2023-09-18T13:28:07;5.78;;;2.10;;
54919;SDS011;63804;53.120;8.764;2023-09-18T13:30:36;6.60;;;2.10;;
54919;SDS011;63804;53.120;8.764;2023-09-18T13:33:07;3.67;;;2.00;;
54919;SDS011;63804;53.120;8.764;2023-09-18T13:35:36;5.15;;;2.20;;
54919;SDS011;63804;53.120;8.764;2023-09-18T13:38:08;5.72;;;2.30;;
54919;SDS011;63804;53.120;8.764;2023-09-18T13:40:36;6.90;;;2.03;;
54919;SDS011;63804;53.120;8.764;2023-09-18T13:43:05;6.78;;;2.38;;
54919;SDS011;63804;53.120;8.764;2023-09-18T13:45:34;8.63;;;2.40;;
54919;SDS011;63804;53.120;8.764;2023-09-18T13:48:05;5.25;;;2.30;;
54919;SDS011;63804;53.120;8.764;2023-09-18T13:50:33;4.07;;;2.20;;
54919;SDS011;63804;53.120;8.764;2023-09-18T13:53:02;4.68;;;2.35;;
54919;SDS011;63804;53.120;8.764;2023-09-18T13:55:34;5.85;;;2.30;;
54919;SDS011;63804;53.120;8.764;2023-09-18T13:58:02;6.43;;;2.50;;
54919;SDS011;63804;53.120;8.764;2023-09-18T14:00:30;5.35;;;2.72;;
54919;SDS011;63804;53.120;8.764;2023-09-18T14:02:58;4.07;;;2.30;;
54919;SDS011;63804;53.120;8.764;2023-09-18T14:05:27;6.63;;;2.78;;
54919;SDS011;63804;53.120;8.764;2023-09-18T14:07:57;4.60;;;2.58;;
54919;SDS011;63804;53.120;8.764;2023-09-18T14:10:27;6.32;;;2.60;;
54919;SDS011;63804;53.120;8.764;2023-09-18T14:12:55;5.53;;;2.72;;
54919;SDS011;63804;53.120;8.764;2023-09-18T14:15:24;7.40;;;3.53;;
54919;SDS011;63804;53.120;8.764;2023-09-18T14:17:52;7.53;;;4.10;;
54919;SDS011;63804;53.120;8.764;2023-09-18T14:20:20;8.50;;;4.50;;
54919;SDS011;63804;53.120;8.764;2023-09-18T14:22:47;7.68;;;3.50;;
54919;SDS011;63804;53.120;8.764;2023-09-18T14:25:17;6.35;;;2.80;;
54919;SDS011;63804;53.120;8.764;2023-09-18T14:27:48;7.18;;;2.75;;
54919;SDS011;63804;53.120;8.764;2023-09-18T14:30:15;9.82;;;3.38;;
54919;SDS011;63804;53.120;8.764;2023-09-18T14:32:43;7.50;;;2.97;;
54919;SDS011;63804;53.120;8.764;2023-09-18T14:35:11;5.55;;;2.60;;
54919;SDS011;63804;53.120;8.764;2023-09-18T14:37:38;4.90;;;1.90;;
54919;SDS011;63804;53.120;8.764;2023-09-18T14:40:06;6.07;;;2.55;;
54919;SDS011;63804;53.120;8.764;2023-09-18T14:42:39;6.38;;;2.80;;
54919;SDS011;63804;53.120;8.764;2023-09-18T14:45:07;6.50;;;2.70;;
54919;SDS011;63804;53.120;8.764;2023-09-18T14:47:36;5.65;;;2.30;;
54919;SDS011;63804;53.120;8.764;2023-09-18T14:50:04;7.00;;;2.08;;
54919;SDS011;63804;53.120;8.764;2023-09-18T14:52:32;4.57;;;2.10;;
54919;SDS011;63804;53.120;8.764;2023-09-18T14:54:59;3.88;;;1.92;;
54919;SDS011;63804;53.120;8.764;2023-09-18T14:57:28;6.43;;;1.95;;
54919;SDS011;63804;53.120;8.764;2023-09-18T14:59:55;5.68;;;1.92;;
54919;SDS011;63804;53.120;8.764;2023-09-18T15:02:23;10.70;;;2.30;;
54919;SDS011;63804;53.120;8.764;2023-09-18T15:04:56;3.35;;;1.90;;
54919;SDS011;63804;53.120;8.764;2023-09-18T15:07:23;6.20;;;2.22;;
54919;SDS011;63804;53.120;8.764;2023-09-18T15:09:51;3.97;;;1.83;;
54919;SDS011;63804;53.120;8.764;2023-09-18T15:12:18;4.78;;;1.80;;
54919;SDS011;63804;53.120;8.764;2023-09-18T15:14:45;4.80;;;2.40;;
54919;SDS011;63804;53.120;8.764;2023-09-18T15:17:13;5.78;;;2.38;;